.
Local / Fort Wayne - NE Ind.

U N D E R   C O N S T R U C T I O N

Local Weather
Fort Wayne – NE Indiana

Northern Indiana (IWX) Radar

Latest IWX NEXRAD
Base Reflectivity



Latest IWX NEXRAD
Base Velocity

Indiana-Ohio Visible Satellite

For infrared and water vapor imagery, see Great Lakes - Midwest.

Current Conditions

Recent report from the Fort Wayne International Airport

Aug 09, 2020 - 12:54 AM EDT / 2020.08.09 0454 UTC


The skies are partly cloudy. The temperature is 66.9 F (19.4 C) and the dew point is 62.1 F (16.7 C), giving a relative humidity of 84%. The barometric pressure is 30.16 in. Hg (1021 hPa). The wind is from the SSE (150 degrees) at 3 MPH (3 KT), and the visibility is 10 mile(s).

KFWA 090454Z 15003KT 10SM SCT250 19/17 A3016 RMK AO2 SLP209 T01940167 402830122

Local Weather — Contents

Local Weather — Links

CoCoRaHS
IN-AL-39
A2 Web Hosting
Creative Commons License
GoDaddy
search engine by freefind advanced

loaded 2020-08-09 01:43:55 • last modified 2017-02-11 13:27:36
Privacy PolicyDisclaimer
• wx.awcolley.com is powered by PmWiki v.2002016 •
• all content (unless otherwise noted) © 2020 A W Colley